sensor_id;sensor_type;location;lat;lon;timestamp;temperature;humidity
23130;DHT22;11734;51.046;13.778;2022-10-16T00:19:05;15.20;99.90
23130;DHT22;11734;51.046;13.778;2022-10-16T00:21:32;15.00;99.90
23130;DHT22;11734;51.046;13.778;2022-10-16T00:24:02;14.80;99.90
23130;DHT22;11734;51.046;13.778;2022-10-16T00:26:33;14.70;99.90
23130;DHT22;11734;51.046;13.778;2022-10-16T00:29:02;14.70;99.90
23130;DHT22;11734;51.046;13.778;2022-10-16T00:31:29;14.60;99.90
23130;DHT22;11734;51.046;13.778;2022-10-16T00:33:57;14.60;99.90
23130;DHT22;11734;51.046;13.778;2022-10-16T00:36:25;14.60;99.90
23130;DHT22;11734;51.046;13.778;2022-10-16T00:38:55;14.60;99.90
23130;DHT22;11734;51.046;13.778;2022-10-16T00:41:24;14.60;99.90
23130;DHT22;11734;51.046;13.778;2022-10-16T00:46:40;14.60;99.90
23130;DHT22;11734;51.046;13.778;2022-10-16T00:49:09;14.60;99.90
23130;DHT22;11734;51.046;13.778;2022-10-16T00:51:45;14.60;99.90
23130;DHT22;11734;51.046;13.778;2022-10-16T00:54:23;14.60;99.90
23130;DHT22;11734;51.046;13.778;2022-10-16T00:56:53;14.50;99.90
23130;DHT22;11734;51.046;13.778;2022-10-16T00:59:30;14.50;99.90
23130;DHT22;11734;51.046;13.778;2022-10-16T01:02:01;14.50;99.90
23130;DHT22;11734;51.046;13.778;2022-10-16T01:04:35;14.50;99.90
23130;DHT22;11734;51.046;13.778;2022-10-16T01:16:05;14.60;99.90
23130;DHT22;11734;51.046;13.778;2022-10-16T01:18:46;14.60;99.90
23130;DHT22;11734;51.046;13.778;2022-10-16T01:21:29;14.60;99.90
23130;DHT22;11734;51.046;13.778;2022-10-16T01:27:09;14.60;99.90
23130;DHT22;11734;51.046;13.778;2022-10-16T01:35:35;14.70;99.90
23130;DHT22;11734;51.046;13.778;2022-10-16T01:41:04;14.80;99.90
23130;DHT22;11734;51.046;13.778;2022-10-16T01:44:02;14.80;99.90
23130;DHT22;11734;51.046;13.778;2022-10-16T01:46:36;14.90;99.90
23130;DHT22;11734;51.046;13.778;2022-10-16T01:49:08;14.90;99.90
23130;DHT22;11734;51.046;13.778;2022-10-16T01:51:38;14.90;99.90
23130;DHT22;11734;51.046;13.778;2022-10-16T01:54:08;14.90;99.90
23130;DHT22;11734;51.046;13.778;2022-10-16T01:56:38;14.90;99.90
23130;DHT22;11734;51.046;13.778;2022-10-16T01:59:09;15.00;99.90
23130;DHT22;11734;51.046;13.778;2022-10-16T02:01:43;15.00;99.90
23130;DHT22;11734;51.046;13.778;2022-10-16T02:04:21;15.10;99.90
23130;DHT22;11734;51.046;13.778;2022-10-16T02:06:52;15.00;99.90
23130;DHT22;11734;51.046;13.778;2022-10-16T02:09:20;14.90;99.90
23130;DHT22;11734;51.046;13.778;2022-10-16T02:11:50;14.90;99.90
23130;DHT22;11734;51.046;13.778;2022-10-16T02:14:21;14.90;99.90
23130;DHT22;11734;51.046;13.778;2022-10-16T02:16:51;14.90;99.90
23130;DHT22;11734;51.046;13.778;2022-10-16T02:19:18;15.00;99.90
23130;DHT22;11734;51.046;13.778;2022-10-16T02:22:01;14.90;99.90
23130;DHT22;11734;51.046;13.778;2022-10-16T02:24:41;15.00;99.90
23130;DHT22;11734;51.046;13.778;2022-10-16T02:30:16;15.00;99.90
23130;DHT22;11734;51.046;13.778;2022-10-16T02:33:09;15.00;99.90
23130;DHT22;11734;51.046;13.778;2022-10-16T02:35:41;15.10;99.90
23130;DHT22;11734;51.046;13.778;2022-10-16T02:38:10;15.00;99.90
23130;DHT22;11734;51.046;13.778;2022-10-16T02:40:39;15.10;99.90
23130;DHT22;11734;51.046;13.778;2022-10-16T02:43:07;15.10;99.90
23130;DHT22;11734;51.046;13.778;2022-10-16T02:45:36;15.10;99.90
23130;DHT22;11734;51.046;13.778;2022-10-16T02:48:03;15.20;99.90
23130;DHT22;11734;51.046;13.778;2022-10-16T02:50:30;15.10;99.90
23130;DHT22;11734;51.046;13.778;2022-10-16T02:52:57;15.20;99.90
23130;DHT22;11734;51.046;13.778;2022-10-16T02:55:24;15.20;99.90
23130;DHT22;11734;51.046;13.778;2022-10-16T02:57:51;15.20;99.90
23130;DHT22;11734;51.046;13.778;2022-10-16T03:00:19;15.20;99.90
23130;DHT22;11734;51.046;13.778;2022-10-16T03:02:46;15.20;99.90
23130;DHT22;11734;51.046;13.778;2022-10-16T03:05:14;15.20;99.90
23130;DHT22;11734;51.046;13.778;2022-10-16T03:07:41;15.20;99.90
23130;DHT22;11734;51.046;13.778;2022-10-16T03:10:08;15.30;99.90
23130;DHT22;11734;51.046;13.778;2022-10-16T03:12:35;15.30;99.90
23130;DHT22;11734;51.046;13.778;2022-10-16T03:15:02;15.30;99.90
23130;DHT22;11734;51.046;13.778;2022-10-16T03:17:32;15.20;99.90
23130;DHT22;11734;51.046;13.778;2022-10-16T03:19:59;15.30;99.90
23130;DHT22;11734;51.046;13.778;2022-10-16T03:22:27;15.30;99.90
23130;DHT22;11734;51.046;13.778;2022-10-16T03:24:54;15.30;99.90
23130;DHT22;11734;51.046;13.778;2022-10-16T03:27:21;15.30;99.90
23130;DHT22;11734;51.046;13.778;2022-10-16T03:29:48;15.30;99.90
23130;DHT22;11734;51.046;13.778;2022-10-16T03:32:15;15.30;99.90
23130;DHT22;11734;51.046;13.778;2022-10-16T03:34:42;15.40;99.90
23130;DHT22;11734;51.046;13.778;2022-10-16T03:37:10;15.30;99.90
23130;DHT22;11734;51.046;13.778;2022-10-16T03:39:37;15.30;99.90
23130;DHT22;11734;51.046;13.778;2022-10-16T03:42:04;15.30;99.90
23130;DHT22;11734;51.046;13.778;2022-10-16T03:44:31;15.30;99.90
23130;DHT22;11734;51.046;13.778;2022-10-16T03:46:58;15.30;99.90
23130;DHT22;11734;51.046;13.778;2022-10-16T03:49:25;15.30;99.90
23130;DHT22;11734;51.046;13.778;2022-10-16T03:51:52;15.30;99.90
23130;DHT22;11734;51.046;13.778;2022-10-16T03:54:19;15.30;99.90
23130;DHT22;11734;51.046;13.778;2022-10-16T03:56:46;15.30;99.90
23130;DHT22;11734;51.046;13.778;2022-10-16T03:59:12;15.30;99.90
23130;DHT22;11734;51.046;13.778;2022-10-16T04:01:39;15.30;99.90
23130;DHT22;11734;51.046;13.778;2022-10-16T04:04:07;15.20;99.90
23130;DHT22;11734;51.046;13.778;2022-10-16T04:06:33;15.20;99.90
23130;DHT22;11734;51.046;13.778;2022-10-16T04:09:00;15.20;99.90
23130;DHT22;11734;51.046;13.778;2022-10-16T04:11:27;15.20;99.90
23130;DHT22;11734;51.046;13.778;2022-10-16T04:13:54;15.10;99.90
23130;DHT22;11734;51.046;13.778;2022-10-16T04:16:22;15.20;99.90
23130;DHT22;11734;51.046;13.778;2022-10-16T04:18:49;15.20;99.90
23130;DHT22;11734;51.046;13.778;2022-10-16T04:21:16;15.20;99.90
23130;DHT22;11734;51.046;13.778;2022-10-16T04:23:43;15.20;99.90
23130;DHT22;11734;51.046;13.778;2022-10-16T04:26:11;15.20;99.90
23130;DHT22;11734;51.046;13.778;2022-10-16T04:28:39;15.30;99.90
23130;DHT22;11734;51.046;13.778;2022-10-16T04:31:06;15.30;99.90
23130;DHT22;11734;51.046;13.778;2022-10-16T04:33:34;15.30;99.90
23130;DHT22;11734;51.046;13.778;2022-10-16T04:36:02;15.30;99.90
23130;DHT22;11734;51.046;13.778;2022-10-16T04:38:30;15.20;99.90
23130;DHT22;11734;51.046;13.778;2022-10-16T04:40:57;15.20;99.90
23130;DHT22;11734;51.046;13.778;2022-10-16T04:43:24;15.10;99.90
23130;DHT22;11734;51.046;13.778;2022-10-16T04:45:51;14.90;99.90
23130;DHT22;11734;51.046;13.778;2022-10-16T04:48:18;15.10;99.90
23130;DHT22;11734;51.046;13.778;2022-10-16T04:50:46;15.10;99.90
23130;DHT22;11734;51.046;13.778;2022-10-16T04:53:21;15.10;99.90
23130;DHT22;11734;51.046;13.778;2022-10-16T04:55:48;15.10;99.90
23130;DHT22;11734;51.046;13.778;2022-10-16T04:58:15;15.00;99.90
23130;DHT22;11734;51.046;13.778;2022-10-16T05:00:42;15.10;99.90
23130;DHT22;11734;51.046;13.778;2022-10-16T05:03:09;15.10;99.90
23130;DHT22;11734;51.046;13.778;2022-10-16T05:05:36;15.00;99.90
23130;DHT22;11734;51.046;13.778;2022-10-16T05:08:03;15.10;99.90
23130;DHT22;11734;51.046;13.778;2022-10-16T05:10:30;15.10;99.90
23130;DHT22;11734;51.046;13.778;2022-10-16T05:12:57;15.00;99.90
23130;DHT22;11734;51.046;13.778;2022-10-16T05:15:24;15.00;99.90
23130;DHT22;11734;51.046;13.778;2022-10-16T05:17:55;15.10;99.90
23130;DHT22;11734;51.046;13.778;2022-10-16T05:20:23;15.00;99.90
23130;DHT22;11734;51.046;13.778;2022-10-16T05:22:50;15.00;99.90
23130;DHT22;11734;51.046;13.778;2022-10-16T05:25:17;15.00;99.90
23130;DHT22;11734;51.046;13.778;2022-10-16T05:27:48;15.00;99.90
23130;DHT22;11734;51.046;13.778;2022-10-16T05:30:17;15.00;99.90
23130;DHT22;11734;51.046;13.778;2022-10-16T05:32:50;15.00;99.90
23130;DHT22;11734;51.046;13.778;2022-10-16T05:35:18;15.10;99.90
23130;DHT22;11734;51.046;13.778;2022-10-16T05:37:46;15.10;99.90
23130;DHT22;11734;51.046;13.778;2022-10-16T05:40:14;15.10;99.90
23130;DHT22;11734;51.046;13.778;2022-10-16T05:42:42;15.10;99.90
23130;DHT22;11734;51.046;13.778;2022-10-16T05:45:10;15.10;99.90
23130;DHT22;11734;51.046;13.778;2022-10-16T05:47:39;15.10;99.90
23130;DHT22;11734;51.046;13.778;2022-10-16T05:50:06;15.10;99.90
23130;DHT22;11734;51.046;13.778;2022-10-16T05:52:34;15.10;99.90
23130;DHT22;11734;51.046;13.778;2022-10-16T05:55:01;15.20;99.90
23130;DHT22;11734;51.046;13.778;2022-10-16T05:57:28;15.10;99.90
23130;DHT22;11734;51.046;13.778;2022-10-16T05:59:56;15.10;99.90
23130;DHT22;11734;51.046;13.778;2022-10-16T06:02:23;15.10;99.90
23130;DHT22;11734;51.046;13.778;2022-10-16T06:04:51;15.10;99.90
23130;DHT22;11734;51.046;13.778;2022-10-16T06:07:21;15.20;99.90
23130;DHT22;11734;51.046;13.778;2022-10-16T06:09:53;15.20;99.90
23130;DHT22;11734;51.046;13.778;2022-10-16T06:12:20;15.10;99.90
23130;DHT22;11734;51.046;13.778;2022-10-16T06:14:47;15.30;99.90
23130;DHT22;11734;51.046;13.778;2022-10-16T06:17:15;15.20;99.90
23130;DHT22;11734;51.046;13.778;2022-10-16T06:19:42;15.30;99.90
23130;DHT22;11734;51.046;13.778;2022-10-16T06:22:09;15.30;99.90
23130;DHT22;11734;51.046;13.778;2022-10-16T06:24:36;15.30;99.90
23130;DHT22;11734;51.046;13.778;2022-10-16T06:27:04;15.40;99.90
23130;DHT22;11734;51.046;13.778;2022-10-16T06:29:31;15.40;99.90
23130;DHT22;11734;51.046;13.778;2022-10-16T06:31:59;15.50;99.90
23130;DHT22;11734;51.046;13.778;2022-10-16T06:34:26;15.50;99.90
23130;DHT22;11734;51.046;13.778;2022-10-16T06:36:53;15.60;99.90
23130;DHT22;11734;51.046;13.778;2022-10-16T06:39:20;15.60;99.90
23130;DHT22;11734;51.046;13.778;2022-10-16T06:41:47;15.60;99.90
23130;DHT22;11734;51.046;13.778;2022-10-16T06:44:14;15.70;99.90
23130;DHT22;11734;51.046;13.778;2022-10-16T06:46:41;15.70;99.90
23130;DHT22;11734;51.046;13.778;2022-10-16T06:49:08;15.80;99.90
23130;DHT22;11734;51.046;13.778;2022-10-16T06:51:35;15.90;99.90
23130;DHT22;11734;51.046;13.778;2022-10-16T06:54:09;15.90;99.90
23130;DHT22;11734;51.046;13.778;2022-10-16T06:56:36;16.00;99.90
23130;DHT22;11734;51.046;13.778;2022-10-16T06:59:04;16.10;99.90
23130;DHT22;11734;51.046;13.778;2022-10-16T07:01:31;16.20;99.90
23130;DHT22;11734;51.046;13.778;2022-10-16T07:04:00;16.20;99.90
23130;DHT22;11734;51.046;13.778;2022-10-16T07:06:32;16.40;99.90
23130;DHT22;11734;51.046;13.778;2022-10-16T07:09:04;16.40;99.90
23130;DHT22;11734;51.046;13.778;2022-10-16T07:11:33;16.40;99.90
23130;DHT22;11734;51.046;13.778;2022-10-16T07:14:01;16.50;99.90
23130;DHT22;11734;51.046;13.778;2022-10-16T07:16:30;16.50;99.90
23130;DHT22;11734;51.046;13.778;2022-10-16T07:19:01;16.50;99.90
23130;DHT22;11734;51.046;13.778;2022-10-16T07:21:31;16.50;99.90
23130;DHT22;11734;51.046;13.778;2022-10-16T07:24:05;16.60;99.90
23130;DHT22;11734;51.046;13.778;2022-10-16T07:26:36;16.60;99.90
23130;DHT22;11734;51.046;13.778;2022-10-16T07:29:07;16.60;99.90
23130;DHT22;11734;51.046;13.778;2022-10-16T07:31:40;16.70;99.90
23130;DHT22;11734;51.046;13.778;2022-10-16T07:34:09;16.70;99.90
23130;DHT22;11734;51.046;13.778;2022-10-16T07:36:37;16.80;99.90
23130;DHT22;11734;51.046;13.778;2022-10-16T07:39:04;16.80;99.90
23130;DHT22;11734;51.046;13.778;2022-10-16T07:41:32;16.80;99.90
23130;DHT22;11734;51.046;13.778;2022-10-16T07:43:59;16.80;99.90
23130;DHT22;11734;51.046;13.778;2022-10-16T07:46:27;17.00;99.90
23130;DHT22;11734;51.046;13.778;2022-10-16T07:48:55;16.90;99.90
23130;DHT22;11734;51.046;13.778;2022-10-16T07:51:23;16.80;99.90
23130;DHT22;11734;51.046;13.778;2022-10-16T07:53:52;17.00;99.90
23130;DHT22;11734;51.046;13.778;2022-10-16T07:56:20;16.90;99.90
23130;DHT22;11734;51.046;13.778;2022-10-16T07:58:48;17.00;99.90
23130;DHT22;11734;51.046;13.778;2022-10-16T08:01:17;17.00;99.90
23130;DHT22;11734;51.046;13.778;2022-10-16T08:03:47;17.10;99.90
23130;DHT22;11734;51.046;13.778;2022-10-16T08:06:17;17.20;99.90
23130;DHT22;11734;51.046;13.778;2022-10-16T08:08:50;17.30;99.90
23130;DHT22;11734;51.046;13.778;2022-10-16T08:11:18;17.50;99.90
23130;DHT22;11734;51.046;13.778;2022-10-16T08:13:45;17.50;99.90
23130;DHT22;11734;51.046;13.778;2022-10-16T08:16:12;17.60;99.90
23130;DHT22;11734;51.046;13.778;2022-10-16T08:18:40;17.80;99.90
23130;DHT22;11734;51.046;13.778;2022-10-16T08:23:46;17.80;99.90
23130;DHT22;11734;51.046;13.778;2022-10-16T08:26:22;17.80;99.90
23130;DHT22;11734;51.046;13.778;2022-10-16T08:28:50;17.80;99.90
23130;DHT22;11734;51.046;13.778;2022-10-16T08:31:18;17.90;99.90
23130;DHT22;11734;51.046;13.778;2022-10-16T08:33:46;18.10;99.90
23130;DHT22;11734;51.046;13.778;2022-10-16T08:36:15;18.20;99.90
23130;DHT22;11734;51.046;13.778;2022-10-16T09:14:44;19.80;99.90
23130;DHT22;11734;51.046;13.778;2022-10-16T09:23:27;20.10;99.90
23130;DHT22;11734;51.046;13.778;2022-10-16T09:49:32;22.60;99.90
23130;DHT22;11734;51.046;13.778;2022-10-16T09:52:14;22.10;99.90
23130;DHT22;11734;51.046;13.778;2022-10-16T09:54:56;22.00;99.90
23130;DHT22;11734;51.046;13.778;2022-10-16T09:57:25;21.70;99.90
23130;DHT22;11734;51.046;13.778;2022-10-16T09:59:57;21.80;99.90
23130;DHT22;11734;51.046;13.778;2022-10-16T10:02:34;22.20;99.90
23130;DHT22;11734;51.046;13.778;2022-10-16T10:10:24;24.40;99.90
23130;DHT22;11734;51.046;13.778;2022-10-16T10:12:55;24.40;99.90
23130;DHT22;11734;51.046;13.778;2022-10-16T10:15:23;23.80;99.90
23130;DHT22;11734;51.046;13.778;2022-10-16T10:17:55;23.20;99.90
23130;DHT22;11734;51.046;13.778;2022-10-16T10:23:24;23.20;99.90
23130;DHT22;11734;51.046;13.778;2022-10-16T10:28:50;23.50;99.90
23130;DHT22;11734;51.046;13.778;2022-10-16T10:31:32;23.20;99.90
23130;DHT22;11734;51.046;13.778;2022-10-16T10:37:41;23.00;99.90
23130;DHT22;11734;51.046;13.778;2022-10-16T10:46:56;23.70;99.90
23130;DHT22;11734;51.046;13.778;2022-10-16T10:52:59;24.40;99.90
23130;DHT22;11734;51.046;13.778;2022-10-16T10:55:38;23.90;99.90
23130;DHT22;11734;51.046;13.778;2022-10-16T11:01:15;23.30;99.90
23130;DHT22;11734;51.046;13.778;2022-10-16T11:06:34;23.40;99.90
23130;DHT22;11734;51.046;13.778;2022-10-16T11:09:21;23.20;99.90
23130;DHT22;11734;51.046;13.778;2022-10-16T11:14:44;23.10;99.90
23130;DHT22;11734;51.046;13.778;2022-10-16T11:17:35;23.00;99.90
23130;DHT22;11734;51.046;13.778;2022-10-16T11:20:25;24.10;99.90
23130;DHT22;11734;51.046;13.778;2022-10-16T11:25:43;24.40;99.90
23130;DHT22;11734;51.046;13.778;2022-10-16T11:28:18;25.00;99.90
23130;DHT22;11734;51.046;13.778;2022-10-16T11:33:41;27.00;99.90
23130;DHT22;11734;51.046;13.778;2022-10-16T11:36:14;26.80;99.90
23130;DHT22;11734;51.046;13.778;2022-10-16T11:41:48;25.30;99.90
23130;DHT22;11734;51.046;13.778;2022-10-16T11:47:48;23.50;99.90
23130;DHT22;11734;51.046;13.778;2022-10-16T11:50:31;23.30;99.90
23130;DHT22;11734;51.046;13.778;2022-10-16T11:55:43;23.20;99.90
23130;DHT22;11734;51.046;13.778;2022-10-16T11:58:32;23.40;99.90
23130;DHT22;11734;51.046;13.778;2022-10-16T12:09:03;24.30;99.90
23130;DHT22;11734;51.046;13.778;2022-10-16T12:11:34;23.80;99.90
23130;DHT22;11734;51.046;13.778;2022-10-16T12:17:34;24.20;99.90
23130;DHT22;11734;51.046;13.778;2022-10-16T12:22:55;23.50;99.90
23130;DHT22;11734;51.046;13.778;2022-10-16T12:25:28;23.40;99.90
23130;DHT22;11734;51.046;13.778;2022-10-16T12:30:40;23.20;99.90
23130;DHT22;11734;51.046;13.778;2022-10-16T12:33:22;22.90;99.90
23130;DHT22;11734;51.046;13.778;2022-10-16T12:35:55;22.80;99.90
23130;DHT22;11734;51.046;13.778;2022-10-16T12:38:30;22.70;99.90
23130;DHT22;11734;51.046;13.778;2022-10-16T12:41:07;22.60;99.90
23130;DHT22;11734;51.046;13.778;2022-10-16T12:43:44;22.70;99.90
23130;DHT22;11734;51.046;13.778;2022-10-16T12:48:42;22.90;99.90
23130;DHT22;11734;51.046;13.778;2022-10-16T13:02:49;23.30;99.90
23130;DHT22;11734;51.046;13.778;2022-10-16T13:06:06;23.50;99.90
23130;DHT22;11734;51.046;13.778;2022-10-16T13:12:21;23.30;99.90
23130;DHT22;11734;51.046;13.778;2022-10-16T13:15:16;22.90;99.90
23130;DHT22;11734;51.046;13.778;2022-10-16T13:23:39;22.70;99.90
23130;DHT22;11734;51.046;13.778;2022-10-16T13:29:04;22.70;99.90
23130;DHT22;11734;51.046;13.778;2022-10-16T13:31:32;23.00;99.90
23130;DHT22;11734;51.046;13.778;2022-10-16T13:34:01;22.80;99.90
23130;DHT22;11734;51.046;13.778;2022-10-16T13:36:43;22.80;99.90
23130;DHT22;11734;51.046;13.778;2022-10-16T13:39:26;22.70;99.90
23130;DHT22;11734;51.046;13.778;2022-10-16T13:42:04;22.70;99.90
23130;DHT22;11734;51.046;13.778;2022-10-16T13:44:45;22.70;99.90
23130;DHT22;11734;51.046;13.778;2022-10-16T13:47:27;22.50;99.90
23130;DHT22;11734;51.046;13.778;2022-10-16T13:50:12;22.40;99.90
23130;DHT22;11734;51.046;13.778;2022-10-16T13:52:41;22.20;99.90
23130;DHT22;11734;51.046;13.778;2022-10-16T13:55:14;22.20;99.90
23130;DHT22;11734;51.046;13.778;2022-10-16T13:57:43;21.90;99.90
23130;DHT22;11734;51.046;13.778;2022-10-16T14:00:22;21.50;99.90
23130;DHT22;11734;51.046;13.778;2022-10-16T14:03:00;21.40;99.90
23130;DHT22;11734;51.046;13.778;2022-10-16T14:05:30;21.30;99.90
23130;DHT22;11734;51.046;13.778;2022-10-16T14:07:58;21.40;99.90
23130;DHT22;11734;51.046;13.778;2022-10-16T14:10:31;21.40;99.90
23130;DHT22;11734;51.046;13.778;2022-10-16T14:13:04;21.40;99.90
23130;DHT22;11734;51.046;13.778;2022-10-16T14:15:35;21.30;99.90
23130;DHT22;11734;51.046;13.778;2022-10-16T14:18:03;21.20;99.90
23130;DHT22;11734;51.046;13.778;2022-10-16T14:20:32;21.10;99.90
23130;DHT22;11734;51.046;13.778;2022-10-16T14:28:37;21.00;99.90
23130;DHT22;11734;51.046;13.778;2022-10-16T14:33:46;21.00;99.90
23130;DHT22;11734;51.046;13.778;2022-10-16T14:36:15;21.00;99.90
23130;DHT22;11734;51.046;13.778;2022-10-16T14:38:57;20.90;99.90
23130;DHT22;11734;51.046;13.778;2022-10-16T14:41:29;20.90;99.90
23130;DHT22;11734;51.046;13.778;2022-10-16T14:44:02;20.90;99.90
23130;DHT22;11734;51.046;13.778;2022-10-16T14:46:38;20.80;99.90
23130;DHT22;11734;51.046;13.778;2022-10-16T14:51:40;20.70;99.90
23130;DHT22;11734;51.046;13.778;2022-10-16T14:54:14;20.60;99.90
23130;DHT22;11734;51.046;13.778;2022-10-16T14:59:24;20.60;99.90
23130;DHT22;11734;51.046;13.778;2022-10-16T15:01:58;20.60;99.90
23130;DHT22;11734;51.046;13.778;2022-10-16T15:04:26;20.50;99.90
23130;DHT22;11734;51.046;13.778;2022-10-16T15:06:53;20.50;99.90
23130;DHT22;11734;51.046;13.778;2022-10-16T15:09:20;20.50;99.90
23130;DHT22;11734;51.046;13.778;2022-10-16T15:11:47;20.40;99.90
23130;DHT22;11734;51.046;13.778;2022-10-16T15:14:14;20.30;99.90
23130;DHT22;11734;51.046;13.778;2022-10-16T15:16:46;20.40;99.90
23130;DHT22;11734;51.046;13.778;2022-10-16T15:19:13;20.40;99.90
23130;DHT22;11734;51.046;13.778;2022-10-16T15:21:40;20.30;99.90
23130;DHT22;11734;51.046;13.778;2022-10-16T15:24:12;20.30;99.90
23130;DHT22;11734;51.046;13.778;2022-10-16T15:26:45;20.30;99.90
23130;DHT22;11734;51.046;13.778;2022-10-16T15:29:16;20.30;99.90
23130;DHT22;11734;51.046;13.778;2022-10-16T15:31:43;20.30;99.90
23130;DHT22;11734;51.046;13.778;2022-10-16T15:34:10;20.20;99.90
23130;DHT22;11734;51.046;13.778;2022-10-16T15:36:38;20.20;99.90
23130;DHT22;11734;51.046;13.778;2022-10-16T15:39:13;20.10;99.90
23130;DHT22;11734;51.046;13.778;2022-10-16T15:41:42;20.00;99.90
23130;DHT22;11734;51.046;13.778;2022-10-16T15:44:09;19.80;99.90
23130;DHT22;11734;51.046;13.778;2022-10-16T15:46:36;19.70;99.90
23130;DHT22;11734;51.046;13.778;2022-10-16T15:49:03;19.60;99.90
23130;DHT22;11734;51.046;13.778;2022-10-16T15:51:31;19.50;99.90
23130;DHT22;11734;51.046;13.778;2022-10-16T15:54:00;19.40;99.90
23130;DHT22;11734;51.046;13.778;2022-10-16T15:56:28;19.40;99.90
23130;DHT22;11734;51.046;13.778;2022-10-16T15:58:55;19.30;99.90
23130;DHT22;11734;51.046;13.778;2022-10-16T16:01:25;19.30;99.90
23130;DHT22;11734;51.046;13.778;2022-10-16T16:03:53;19.20;99.90
23130;DHT22;11734;51.046;13.778;2022-10-16T16:06:22;19.10;99.90
23130;DHT22;11734;51.046;13.778;2022-10-16T16:08:52;19.10;99.90
23130;DHT22;11734;51.046;13.778;2022-10-16T16:11:20;19.10;99.90
23130;DHT22;11734;51.046;13.778;2022-10-16T16:13:49;19.00;99.90
23130;DHT22;11734;51.046;13.778;2022-10-16T16:16:17;19.00;99.90
23130;DHT22;11734;51.046;13.778;2022-10-16T16:18:46;18.90;99.90
23130;DHT22;11734;51.046;13.778;2022-10-16T16:21:15;18.90;99.90
23130;DHT22;11734;51.046;13.778;2022-10-16T16:23:42;18.80;99.90
23130;DHT22;11734;51.046;13.778;2022-10-16T16:28:42;18.70;99.90
23130;DHT22;11734;51.046;13.778;2022-10-16T16:31:10;18.60;99.90
23130;DHT22;11734;51.046;13.778;2022-10-16T16:33:36;18.60;99.90
23130;DHT22;11734;51.046;13.778;2022-10-16T16:36:05;18.50;99.90
23130;DHT22;11734;51.046;13.778;2022-10-16T16:38:39;18.40;99.90
23130;DHT22;11734;51.046;13.778;2022-10-16T16:41:17;18.30;99.90
23130;DHT22;11734;51.046;13.778;2022-10-16T16:43:46;18.30;99.90
23130;DHT22;11734;51.046;13.778;2022-10-16T16:46:14;18.20;99.90
23130;DHT22;11734;51.046;13.778;2022-10-16T16:48:41;18.10;99.90
23130;DHT22;11734;51.046;13.778;2022-10-16T16:51:11;18.00;99.90
23130;DHT22;11734;51.046;13.778;2022-10-16T16:53:43;17.60;99.90
23130;DHT22;11734;51.046;13.778;2022-10-16T16:56:13;17.90;99.90
23130;DHT22;11734;51.046;13.778;2022-10-16T16:58:40;17.80;99.90
23130;DHT22;11734;51.046;13.778;2022-10-16T17:01:09;17.80;99.90
23130;DHT22;11734;51.046;13.778;2022-10-16T17:03:48;17.70;99.90
23130;DHT22;11734;51.046;13.778;2022-10-16T17:06:26;17.70;99.90
23130;DHT22;11734;51.046;13.778;2022-10-16T17:08:58;17.70;99.90
23130;DHT22;11734;51.046;13.778;2022-10-16T17:11:29;17.60;99.90
23130;DHT22;11734;51.046;13.778;2022-10-16T17:13:58;17.50;99.90
23130;DHT22;11734;51.046;13.778;2022-10-16T17:16:30;17.50;99.90
23130;DHT22;11734;51.046;13.778;2022-10-16T17:21:30;17.20;99.90
23130;DHT22;11734;51.046;13.778;2022-10-16T17:26:28;17.20;99.90
23130;DHT22;11734;51.046;13.778;2022-10-16T17:28:57;17.20;99.90
23130;DHT22;11734;51.046;13.778;2022-10-16T17:33:59;17.10;99.90
23130;DHT22;11734;51.046;13.778;2022-10-16T17:36:30;17.10;99.90
23130;DHT22;11734;51.046;13.778;2022-10-16T17:53:58;16.90;99.90
23130;DHT22;11734;51.046;13.778;2022-10-16T17:56:26;16.90;99.90
23130;DHT22;11734;51.046;13.778;2022-10-16T17:58:55;16.80;99.90
23130;DHT22;11734;51.046;13.778;2022-10-16T18:01:34;16.70;99.90
23130;DHT22;11734;51.046;13.778;2022-10-16T18:04:08;16.50;99.90
23130;DHT22;11734;51.046;13.778;2022-10-16T18:06:40;16.70;99.90
23130;DHT22;11734;51.046;13.778;2022-10-16T18:09:10;16.70;99.90
23130;DHT22;11734;51.046;13.778;2022-10-16T18:14:07;16.50;99.90
23130;DHT22;11734;51.046;13.778;2022-10-16T18:16:34;16.70;99.90
23130;DHT22;11734;51.046;13.778;2022-10-16T18:23:58;16.70;99.90
23130;DHT22;11734;51.046;13.778;2022-10-16T18:26:27;16.70;99.90
23130;DHT22;11734;51.046;13.778;2022-10-16T18:36:24;16.60;99.90
23130;DHT22;11734;51.046;13.778;2022-10-16T18:38:56;16.60;99.90
23130;DHT22;11734;51.046;13.778;2022-10-16T18:46:21;16.60;99.90
23130;DHT22;11734;51.046;13.778;2022-10-16T18:48:50;16.60;99.90
23130;DHT22;11734;51.046;13.778;2022-10-16T18:51:29;16.60;99.90
23130;DHT22;11734;51.046;13.778;2022-10-16T18:54:03;16.50;99.90
23130;DHT22;11734;51.046;13.778;2022-10-16T18:56:34;16.60;99.90
23130;DHT22;11734;51.046;13.778;2022-10-16T18:59:02;16.50;99.90
23130;DHT22;11734;51.046;13.778;2022-10-16T19:01:32;16.50;99.90
23130;DHT22;11734;51.046;13.778;2022-10-16T19:16:36;16.30;99.90
23130;DHT22;11734;51.046;13.778;2022-10-16T19:19:06;16.30;99.90
23130;DHT22;11734;51.046;13.778;2022-10-16T19:36:32;16.20;99.90
23130;DHT22;11734;51.046;13.778;2022-10-16T19:39:06;16.20;99.90
23130;DHT22;11734;51.046;13.778;2022-10-16T19:41:37;16.20;99.90
23130;DHT22;11734;51.046;13.778;2022-10-16T19:44:06;16.30;99.90
23130;DHT22;11734;51.046;13.778;2022-10-16T19:46:35;16.20;99.90
23130;DHT22;11734;51.046;13.778;2022-10-16T19:49:08;16.20;99.90
23130;DHT22;11734;51.046;13.778;2022-10-16T19:54:09;16.30;99.90
23130;DHT22;11734;51.046;13.778;2022-10-16T19:56:39;16.20;99.90
23130;DHT22;11734;51.046;13.778;2022-10-16T19:59:08;16.10;99.90
23130;DHT22;11734;51.046;13.778;2022-10-16T20:01:38;16.40;99.90
23130;DHT22;11734;51.046;13.778;2022-10-16T20:11:30;16.20;99.90
23130;DHT22;11734;51.046;13.778;2022-10-16T20:13:59;15.90;99.90
23130;DHT22;11734;51.046;13.778;2022-10-16T20:23:54;16.10;99.90
23130;DHT22;11734;51.046;13.778;2022-10-16T20:26:23;16.10;99.90
23130;DHT22;11734;51.046;13.778;2022-10-16T20:33:52;16.00;99.90
23130;DHT22;11734;51.046;13.778;2022-10-16T20:43:48;15.60;99.90
23130;DHT22;11734;51.046;13.778;2022-10-16T20:46:22;15.90;99.90
23130;DHT22;11734;51.046;13.778;2022-10-16T20:51:23;16.00;99.90
23130;DHT22;11734;51.046;13.778;2022-10-16T21:01:28;16.10;99.90
23130;DHT22;11734;51.046;13.778;2022-10-16T21:04:01;16.10;99.90
23130;DHT22;11734;51.046;13.778;2022-10-16T21:06:32;16.00;99.90